This is the latest recevied weather packets stored in our database for station/object N4OOJ-13. If no packets are shown the sender has not sent any weather packets the latest 10 day(s).
| Time | Temp. | Humidity | Pressure | Rain* | Wind** | Luminosity | Snow |
|---|---|---|---|---|---|---|---|
| 1777938023 | 21.67° C | 57% | 1018.1 hPa | 0 mm | - | - | - |
| 1777937417 | 21.67° C | 55% | 1018 hPa | 0 mm | - | - | - |
| 1777936816 | 22.22° C | 54% | 1018 hPa | 0 mm | - | - | - |
| 1777936230 | 23.89° C | 50% | 1018 hPa | 0 mm | - | - | - |
| 1777935624 | 25° C | 47% | 1018 hPa | 0 mm | - | - | - |
| 1777935019 | 26.11° C | 43% | 1017.9 hPa | 0 mm | - | - | - |
| 1777934431 | 26.11° C | 44% | 1017.9 hPa | 0 mm | - | - | - |
| 1777933825 | 25.56° C | 43% | 1017.9 hPa | 0 mm | - | - | - |
| 1777933219 | 26.11° C | 42% | 1017.9 hPa | 0 mm | - | - | - |
| 1777932618 | 26.11° C | 40% | 1017.9 hPa | 0 mm | - | - | - |
| 1777932025 | 25.56° C | 40% | 1017.8 hPa | 0 mm | - | - | - |
| 1777931420 | 25° C | 42% | 1017.7 hPa | 0 mm | - | - | - |
| 1777930819 | 25° C | 42% | 1017.7 hPa | 0 mm | - | - | - |
| 1777930232 | 25° C | 43% | 1017.7 hPa | 0 mm | - | - | - |
| 1777929626 | 25.56° C | 43% | 1017.7 hPa | 0 mm | - | - | - |
| 1777929021 | 26.11° C | 41% | 1017.7 hPa | 0 mm | - | - | - |
| 1777928416 | 25.56° C | 42% | 1017.7 hPa | 0 mm | - | - | - |
| 1777927816 | 25.56° C | 42% | 1017.6 hPa | 0 mm | - | - | - |
| 1777927216 | 26.67° C | 41% | 1017.8 hPa | 0 mm | - | - | - |
| 1777926627 | 26.67° C | 40% | 1017.7 hPa | 0 mm | - | - | - |
| 1777926027 | 27.22° C | 40% | 1017.7 hPa | 0 mm | - | - | - |
| 1777925420 | 27.78° C | 37% | 1017.8 hPa | 0 mm | - | - | - |
| 1777924832 | 27.78° C | 34% | 1017.9 hPa | 0 mm | - | - | - |
| 1777924226 | 30° C | 30% | 1017.9 hPa | 0 mm | - | - | - |
| 1777923621 | 28.33° C | 31% | 1018.2 hPa | 0 mm | - | - | - |
* Rain latest hour (hover to see other rain measurements)
** Current wind speed in m/s (hover to see current wind gust speed)